Gazpromneft East — UBOF4 — position and weather

sailwx.info

Track history (hours):
 
Tides and Currents Weather Stations Pressure Air Temp Water Temp Dewpoint Dewpoint Depression Visibility Wind Speed Wind Dir Waves Ship Positions

Gazpromneft East

Last reported at 2015-Jul-07 19:32 UTC. Time now 2015-Jul-07 19:50 UTC.
Position N 59°57' E 029°52'.

Length 79 m; draft 5 m.

Type: Tanker. MMSI: 273335320.

Date/timePositionNaut miles runAvg speedWind from/ knotsBaromVisibWave heightAir tempDewpointWater temp
2015-Jul-07 19:32N 59°57' E 029°52'0 0.0
2015-Jul-07 18:32N 59°57' E 029°52'0 0.0
2015-Jul-07 17:32N 59°57' E 029°52'3 3.2
2015-Jul-07 16:33N 59°56' E 029°46'0 0.0
2015-Jul-07 15:32N 59°56' E 029°46'5 5.0
2015-Jul-07 14:33N 59°56' E 029°56'8 7.9
2015-Jul-07 13:33N 59°57' E 030°12'0 0.0
2015-Jul-07 12:33N 59°57' E 030°12'0 0.0
2015-Jul-07 11:33N 59°57' E 030°12'0 0.0
2015-Jul-07 10:33N 59°57' E 030°12'0 0.0
2015-Jul-07 09:33N 59°57' E 030°12'0 0.0
2015-Jul-07 08:33N 59°57' E 030°12'0 0.0
2015-Jul-07 07:33N 59°57' E 030°12'1 1.3
2015-Jul-07 06:33N 59°57' E 030°09'10 9.8
2015-Jul-07 05:33N 59°57' E 029°50'2 0.2
2015-Jul-06 22:33N 59°56' E 029°47'9 8.9
2015-Jul-06 21:33N 59°54' E 030°04'5 4.9
2015-Jul-06 20:33N 59°54' E 030°14'0 0.0
2015-Jul-06 19:33N 59°54' E 030°14'0 0.0
2015-Jul-06 18:33N 59°54' E 030°14'0 0.0
2015-Jul-06 17:33N 59°54' E 030°14'1 0.8
2015-Jul-06 16:33N 59°53' E 030°13'0 0.0
2015-Jul-06 15:33N 59°53' E 030°13'0 0.0
2015-Jul-06 14:33N 59°53' E 030°13'0 0.0
2015-Jul-06 13:33N 59°53' E 030°13'0 0.0
2015-Jul-06 12:33N 59°53' E 030°13'0 0.0
2015-Jul-06 11:33N 59°53' E 030°13'0 0.0
2015-Jul-06 10:33N 59°53' E 030°13'0 0.0
2015-Jul-06 09:33N 59°53' E 030°13'0 0.0
2015-Jul-06 08:33N 59°53' E 030°13'0 0.0
2015-Jul-06 07:33N 59°53' E 030°13'0 0.0
2015-Jul-06 06:33N 59°53' E 030°13'0 0.0
2015-Jul-06 05:33N 59°53' E 030°13'1 0.5
2015-Jul-06 04:33N 59°53' E 030°13'0 0.0
2015-Jul-06 03:33N 59°53' E 030°13'0 0.0
2015-Jul-06 02:33N 59°53' E 030°13'0 0.2
2015-Jul-06 01:33N 59°53' E 030°13'1 0.6
2015-Jul-06 00:33N 59°53' E 030°13'0 0.0
2015-Jul-05 23:33N 59°53' E 030°13'0 0.0
2015-Jul-05 22:33N 59°53' E 030°13'0 0.0
2015-Jul-05 21:33N 59°53' E 030°13'0 0.0
2015-Jul-05 20:33N 59°53' E 030°13'0 0.0
2015-Jul-05 19:33N 59°53' E 030°13'0 0.0
2015-Jul-05 18:33N 59°53' E 030°13'0 0.0
2015-Jul-05 17:33N 59°53' E 030°13'0 0.0
2015-Jul-05 16:33N 59°53' E 030°13'0 0.0
2015-Jul-05 15:33N 59°53' E 030°13'0 0.0
2015-Jul-05 14:33N 59°53' E 030°13'0 0.0
2015-Jul-05 13:33N 59°53' E 030°13'0 0.0
2015-Jul-05 12:33N 59°53' E 030°13'0 0.0
2015-Jul-05 11:33N 59°53' E 030°13'0 0.0
2015-Jul-05 10:33N 59°53' E 030°13'0 0.0
2015-Jul-05 09:33N 59°53' E 030°13'0 0.0
2015-Jul-05 08:33N 59°53' E 030°13'0 0.4
2015-Jul-05 07:33N 59°53' E 030°13'1 1.0
2015-Jul-05 06:33N 59°52' E 030°13'0 0.0
2015-Jul-05 05:33N 59°52' E 030°13'0 0.0
2015-Jul-05 04:33N 59°52' E 030°13'0 0.0
2015-Jul-05 03:33N 59°52' E 030°13'1 0.9
2015-Jul-05 02:33N 59°53' E 030°14'0 0.0
2015-Jul-05 01:33N 59°53' E 030°14'0 0.0
2015-Jul-05 00:33N 59°53' E 030°14'0 0.0
2015-Jul-04 23:33N 59°53' E 030°14'0 0.0
2015-Jul-04 22:33N 59°53' E 030°14'0 0.0
2015-Jul-04 21:33N 59°53' E 030°14'0 0.0
2015-Jul-04 20:33N 59°53' E 030°14'0 0.0
2015-Jul-04 19:33N 59°53' E 030°14'0 0.0
2015-Jul-04 18:33N 59°53' E 030°14'0 0.0
2015-Jul-04 17:33N 59°53' E 030°14'0 0.0
2015-Jul-04 16:33N 59°53' E 030°14'0 0.0
2015-Jul-04 15:33N 59°53' E 030°14'0 0.0
2015-Jul-04 14:33N 59°53' E 030°14'0 0.0
2015-Jul-04 13:33N 59°53' E 030°14'0 0.0
2015-Jul-04 12:33N 59°53' E 030°14'0 0.0
2015-Jul-04 11:33N 59°53' E 030°14'0 0.0
2015-Jul-04 10:33N 59°53' E 030°14'0 0.0
2015-Jul-04 09:33N 59°53' E 030°14'0 0.0
2015-Jul-04 08:33N 59°53' E 030°14'0 0.0
2015-Jul-04 07:33N 59°53' E 030°14'0 0.0
2015-Jul-04 06:33N 59°53' E 030°14'0 0.0
2015-Jul-04 05:33N 59°53' E 030°14'0 0.0
2015-Jul-04 04:33N 59°53' E 030°14'1 1.2
2015-Jul-04 03:33N 59°53' E 030°11'0 0.0
2015-Jul-04 02:33N 59°53' E 030°11'0 0.0
2015-Jul-04 01:33N 59°53' E 030°11'0 0.0
2015-Jul-04 00:33N 59°53' E 030°11'0 0.0
2015-Jul-03 23:33N 59°53' E 030°11'0 0.0
2015-Jul-03 22:33N 59°53' E 030°11'0 0.2
2015-Jul-03 21:33N 59°53' E 030°11'1 1.3
2015-Jul-03 20:32N 59°53' E 030°13'0 0.0
2015-Jul-03 19:33N 59°53' E 030°13'0 0.0
2015-Jul-03 18:33N 59°53' E 030°13'0 0.4
2015-Jul-03 17:33N 59°53' E 030°13'1 0.7
2015-Jul-03 16:33N 59°53' E 030°12'0 0.0
2015-Jul-03 15:33N 59°53' E 030°12'0 0.0
2015-Jul-03 14:33N 59°53' E 030°12'1 0.5
2015-Jul-03 13:33N 59°53' E 030°11'1 1.1
2015-Jul-03 12:33N 59°53' E 030°13'0 0.0
2015-Jul-03 11:33N 59°53' E 030°13'0 0.0
2015-Jul-03 10:33N 59°53' E 030°13'0 0.0
2015-Jul-03 09:33N 59°53' E 030°13'0 0.0
2015-Jul-03 08:33N 59°53' E 030°13'0 0.0
2015-Jul-03 07:33N 59°53' E 030°13'2 2.1
2015-Jul-03 06:33N 59°53' E 030°09'9 8.8
2015-Jul-03 05:33N 59°57' E 029°53'4 0.5
2015-Jul-02 22:04N 59°56' E 029°46'0 0.0
2015-Jul-02 21:22N 59°56' E 029°46'0 0.0
2015-Jul-02 19:33N 59°56' E 029°46'0 0.1
2015-Jul-02 18:32N 59°56' E 029°47'7 7.6
2015-Jul-02 17:33N 59°55' E 030°01'6 5.6
2015-Jul-02 16:33N 59°53' E 030°11'0 0.0
2015-Jul-02 15:33N 59°53' E 030°11'0 0.0
2015-Jul-02 14:33N 59°53' E 030°11'0 0.0
2015-Jul-02 13:33N 59°53' E 030°11'0 0.0
2015-Jul-02 12:33N 59°53' E 030°11'0 0.0
2015-Jul-02 11:33N 59°53' E 030°11'0 0.0
2015-Jul-02 10:33N 59°53' E 030°11'0 0.0
2015-Jul-02 09:33N 59°53' E 030°11'1 1.0
2015-Jul-02 08:33N 59°53' E 030°13'0 0.0
2015-Jul-02 07:33N 59°53' E 030°13'0 0.0
2015-Jul-02 06:33N 59°53' E 030°13'0 0.0
2015-Jul-02 05:33N 59°53' E 030°13'0 0.0
2015-Jul-02 04:33N 59°53' E 030°13'0 0.0
2015-Jul-02 03:33N 59°53' E 030°13'0 0.0
2015-Jul-02 02:34N 59°53' E 030°13'0 0.0
2015-Jul-02 01:33N 59°53' E 030°13'0 0.0
2015-Jul-02 00:33N 59°53' E 030°13'0 0.0
2015-Jul-01 23:33N 59°53' E 030°13'0 0.0
2015-Jul-01 22:33N 59°53' E 030°13'0 0.0
2015-Jul-01 21:33N 59°53' E 030°13'0 0.0
2015-Jul-01 20:33N 59°53' E 030°13'0 0.0
2015-Jul-01 19:33N 59°53' E 030°13'0 0.0
2015-Jul-01 18:33N 59°53' E 030°13'0 0.0
2015-Jul-01 17:34N 59°53' E 030°13'0 0.0
2015-Jul-01 16:33N 59°53' E 030°13'0 0.0
2015-Jul-01 15:33N 59°53' E 030°13'0 0.0
2015-Jul-01 14:33N 59°53' E 030°13'0 0.0
2015-Jul-01 13:33N 59°53' E 030°13'0 0.0
2015-Jul-01 12:33N 59°53' E 030°13'0 0.0
2015-Jul-01 11:33N 59°53' E 030°13'0 0.0
2015-Jul-01 10:33N 59°53' E 030°13'0 0.0
2015-Jul-01 09:33N 59°53' E 030°13'0 0.0
2015-Jul-01 08:33N 59°53' E 030°13'0 0.0
2015-Jul-01 07:33N 59°53' E 030°13'0 0.0
2015-Jul-01 06:33N 59°53' E 030°13'0 0.0
2015-Jul-01 05:33N 59°53' E 030°13'0 0.0
2015-Jul-01 04:34N 59°53' E 030°13'0 0.0
2015-Jul-01 03:33N 59°53' E 030°13'0 0.0
2015-Jul-01 02:33N 59°53' E 030°13'0 0.0
2015-Jul-01 01:33N 59°53' E 030°13'0 0.0
2015-Jul-01 00:33N 59°53' E 030°13'0 0.0
2015-Jun-30 23:33N 59°53' E 030°13'0 0.0
2015-Jun-30 22:33N 59°53' E 030°13'0 0.0
2015-Jun-30 21:33N 59°53' E 030°13'0 0.0
2015-Jun-30 20:33N 59°53' E 030°13'0 0.0
2015-Jun-30 19:33N 59°53' E 030°13'0 0.0
2015-Jun-30 18:33N 59°53' E 030°13'0 0.1
2015-Jun-30 17:33N 59°53' E 030°13'0 0.1
2015-Jun-30 16:33N 59°53' E 030°14'0 0.0
2015-Jun-30 15:33N 59°53' E 030°14'0 0.0
2015-Jun-30 14:33N 59°53' E 030°14'0 0.0
2015-Jun-30 13:33N 59°53' E 030°14'1 1.3
2015-Jun-30 12:33N 59°53' E 030°11'0 0.0
2015-Jun-30 11:33N 59°53' E 030°11'0 0.0
2015-Jun-30 10:34N 59°53' E 030°11'0 0.0
2015-Jun-30 09:33N 59°53' E 030°11'1 0.8
2015-Jun-30 08:33N 59°53' E 030°12'1 0.6
2015-Jun-30 07:33N 59°53' E 030°14'0 0.0
2015-Jun-30 06:34N 59°53' E 030°14'1 1.4
2015-Jun-30 05:33N 59°53' E 030°11'1010.3
2015-Jun-30 04:33N 59°57' E 029°52'1110.3
2015-Jun-30 03:30N 60°01' E 029°32'5 0.4
2015-Jun-29 15:22N 60°01' E 029°21'  
Track history (hours):
 
Tides and Currents Weather Stations Pressure Air Temp Water Temp Dewpoint Dewpoint Depression Visibility Wind Speed Wind Dir Waves Ship Positions

Gazpromneft East

Last reported at 2015-Jul-07 19:32 UTC. Time now 2015-Jul-07 19:50 UTC.
Position N 59°57' E 029°52'.

Length 79 m; draft 5 m.

Type: Tanker. MMSI: 273335320.

Date/timePositionNaut miles runAvg speedWind from/ knotsBaromVisibWave heightAir tempDewpointWater temp
2015-Jul-07 19:32N 59°57' E 029°52'0 0.0
2015-Jul-07 18:32N 59°57' E 029°52'0 0.0
2015-Jul-07 17:32N 59°57' E 029°52'3 3.2
2015-Jul-07 16:33N 59°56' E 029°46'0 0.0
2015-Jul-07 15:32N 59°56' E 029°46'5 5.0
2015-Jul-07 14:33N 59°56' E 029°56'8 7.9
2015-Jul-07 13:33N 59°57' E 030°12'0 0.0
2015-Jul-07 12:33N 59°57' E 030°12'0 0.0
2015-Jul-07 11:33N 59°57' E 030°12'0 0.0
2015-Jul-07 10:33N 59°57' E 030°12'0 0.0
2015-Jul-07 09:33N 59°57' E 030°12'0 0.0
2015-Jul-07 08:33N 59°57' E 030°12'0 0.0
2015-Jul-07 07:33N 59°57' E 030°12'1 1.3
2015-Jul-07 06:33N 59°57' E 030°09'10 9.8
2015-Jul-07 05:33N 59°57' E 029°50'2 0.2
2015-Jul-06 22:33N 59°56' E 029°47'9 8.9
2015-Jul-06 21:33N 59°54' E 030°04'5 4.9
2015-Jul-06 20:33N 59°54' E 030°14'0 0.0
2015-Jul-06 19:33N 59°54' E 030°14'0 0.0
2015-Jul-06 18:33N 59°54' E 030°14'0 0.0
2015-Jul-06 17:33N 59°54' E 030°14'1 0.8
2015-Jul-06 16:33N 59°53' E 030°13'0 0.0
2015-Jul-06 15:33N 59°53' E 030°13'0 0.0
2015-Jul-06 14:33N 59°53' E 030°13'0 0.0
2015-Jul-06 13:33N 59°53' E 030°13'0 0.0
2015-Jul-06 12:33N 59°53' E 030°13'0 0.0
2015-Jul-06 11:33N 59°53' E 030°13'0 0.0
2015-Jul-06 10:33N 59°53' E 030°13'0 0.0
2015-Jul-06 09:33N 59°53' E 030°13'0 0.0
2015-Jul-06 08:33N 59°53' E 030°13'0 0.0
2015-Jul-06 07:33N 59°53' E 030°13'0 0.0
2015-Jul-06 06:33N 59°53' E 030°13'0 0.0
2015-Jul-06 05:33N 59°53' E 030°13'1 0.5
2015-Jul-06 04:33N 59°53' E 030°13'0 0.0
2015-Jul-06 03:33N 59°53' E 030°13'0 0.0
2015-Jul-06 02:33N 59°53' E 030°13'0 0.2
2015-Jul-06 01:33N 59°53' E 030°13'1 0.6
2015-Jul-06 00:33N 59°53' E 030°13'0 0.0
2015-Jul-05 23:33N 59°53' E 030°13'0 0.0
2015-Jul-05 22:33N 59°53' E 030°13'0 0.0
2015-Jul-05 21:33N 59°53' E 030°13'0 0.0
2015-Jul-05 20:33N 59°53' E 030°13'0 0.0
2015-Jul-05 19:33N 59°53' E 030°13'0 0.0
2015-Jul-05 18:33N 59°53' E 030°13'0 0.0
2015-Jul-05 17:33N 59°53' E 030°13'0 0.0
2015-Jul-05 16:33N 59°53' E 030°13'0 0.0
2015-Jul-05 15:33N 59°53' E 030°13'0 0.0
2015-Jul-05 14:33N 59°53' E 030°13'0 0.0
2015-Jul-05 13:33N 59°53' E 030°13'0 0.0
2015-Jul-05 12:33N 59°53' E 030°13'0 0.0
2015-Jul-05 11:33N 59°53' E 030°13'0 0.0
2015-Jul-05 10:33N 59°53' E 030°13'0 0.0
2015-Jul-05 09:33N 59°53' E 030°13'0 0.0
2015-Jul-05 08:33N 59°53' E 030°13'0 0.4
2015-Jul-05 07:33N 59°53' E 030°13'1 1.0
2015-Jul-05 06:33N 59°52' E 030°13'0 0.0
2015-Jul-05 05:33N 59°52' E 030°13'0 0.0
2015-Jul-05 04:33N 59°52' E 030°13'0 0.0
2015-Jul-05 03:33N 59°52' E 030°13'1 0.9
2015-Jul-05 02:33N 59°53' E 030°14'0 0.0
2015-Jul-05 01:33N 59°53' E 030°14'0 0.0
2015-Jul-05 00:33N 59°53' E 030°14'0 0.0
2015-Jul-04 23:33N 59°53' E 030°14'0 0.0
2015-Jul-04 22:33N 59°53' E 030°14'0 0.0
2015-Jul-04 21:33N 59°53' E 030°14'0 0.0
2015-Jul-04 20:33N 59°53' E 030°14'0 0.0
2015-Jul-04 19:33N 59°53' E 030°14'0 0.0
2015-Jul-04 18:33N 59°53' E 030°14'0 0.0
2015-Jul-04 17:33N 59°53' E 030°14'0 0.0
2015-Jul-04 16:33N 59°53' E 030°14'0 0.0
2015-Jul-04 15:33N 59°53' E 030°14'0 0.0
2015-Jul-04 14:33N 59°53' E 030°14'0 0.0
2015-Jul-04 13:33N 59°53' E 030°14'0 0.0
2015-Jul-04 12:33N 59°53' E 030°14'0 0.0
2015-Jul-04 11:33N 59°53' E 030°14'0 0.0
2015-Jul-04 10:33N 59°53' E 030°14'0 0.0
2015-Jul-04 09:33N 59°53' E 030°14'0 0.0
2015-Jul-04 08:33N 59°53' E 030°14'0 0.0
2015-Jul-04 07:33N 59°53' E 030°14'0 0.0
2015-Jul-04 06:33N 59°53' E 030°14'0 0.0
2015-Jul-04 05:33N 59°53' E 030°14'0 0.0
2015-Jul-04 04:33N 59°53' E 030°14'1 1.2
2015-Jul-04 03:33N 59°53' E 030°11'0 0.0
2015-Jul-04 02:33N 59°53' E 030°11'0 0.0
2015-Jul-04 01:33N 59°53' E 030°11'0 0.0
2015-Jul-04 00:33N 59°53' E 030°11'0 0.0
2015-Jul-03 23:33N 59°53' E 030°11'0 0.0
2015-Jul-03 22:33N 59°53' E 030°11'0 0.2
2015-Jul-03 21:33N 59°53' E 030°11'1 1.3
2015-Jul-03 20:32N 59°53' E 030°13'0 0.0
2015-Jul-03 19:33N 59°53' E 030°13'0 0.0
2015-Jul-03 18:33N 59°53' E 030°13'0 0.4
2015-Jul-03 17:33N 59°53' E 030°13'1 0.7
2015-Jul-03 16:33N 59°53' E 030°12'0 0.0
2015-Jul-03 15:33N 59°53' E 030°12'0 0.0
2015-Jul-03 14:33N 59°53' E 030°12'1 0.5
2015-Jul-03 13:33N 59°53' E 030°11'1 1.1
2015-Jul-03 12:33N 59°53' E 030°13'0 0.0
2015-Jul-03 11:33N 59°53' E 030°13'0 0.0
2015-Jul-03 10:33N 59°53' E 030°13'0 0.0
2015-Jul-03 09:33N 59°53' E 030°13'0 0.0
2015-Jul-03 08:33N 59°53' E 030°13'0 0.0
2015-Jul-03 07:33N 59°53' E 030°13'2 2.1
2015-Jul-03 06:33N 59°53' E 030°09'9 8.8
2015-Jul-03 05:33N 59°57' E 029°53'4 0.5
2015-Jul-02 22:04N 59°56' E 029°46'0 0.0
2015-Jul-02 21:22N 59°56' E 029°46'0 0.0
2015-Jul-02 19:33N 59°56' E 029°46'0 0.1
2015-Jul-02 18:32N 59°56' E 029°47'7 7.6
2015-Jul-02 17:33N 59°55' E 030°01'6 5.6
2015-Jul-02 16:33N 59°53' E 030°11'0 0.0
2015-Jul-02 15:33N 59°53' E 030°11'0 0.0
2015-Jul-02 14:33N 59°53' E 030°11'0 0.0
2015-Jul-02 13:33N 59°53' E 030°11'0 0.0
2015-Jul-02 12:33N 59°53' E 030°11'0 0.0
2015-Jul-02 11:33N 59°53' E 030°11'0 0.0
2015-Jul-02 10:33N 59°53' E 030°11'0 0.0
2015-Jul-02 09:33N 59°53' E 030°11'1 1.0
2015-Jul-02 08:33N 59°53' E 030°13'0 0.0
2015-Jul-02 07:33N 59°53' E 030°13'0 0.0
2015-Jul-02 06:33N 59°53' E 030°13'0 0.0
2015-Jul-02 05:33N 59°53' E 030°13'0 0.0
2015-Jul-02 04:33N 59°53' E 030°13'0 0.0
2015-Jul-02 03:33N 59°53' E 030°13'0 0.0
2015-Jul-02 02:34N 59°53' E 030°13'0 0.0
2015-Jul-02 01:33N 59°53' E 030°13'0 0.0
2015-Jul-02 00:33N 59°53' E 030°13'0 0.0
2015-Jul-01 23:33N 59°53' E 030°13'0 0.0
2015-Jul-01 22:33N 59°53' E 030°13'0 0.0
2015-Jul-01 21:33N 59°53' E 030°13'0 0.0
2015-Jul-01 20:33N 59°53' E 030°13'0 0.0
2015-Jul-01 19:33N 59°53' E 030°13'0 0.0
2015-Jul-01 18:33N 59°53' E 030°13'0 0.0
2015-Jul-01 17:34N 59°53' E 030°13'0 0.0
2015-Jul-01 16:33N 59°53' E 030°13'0 0.0
2015-Jul-01 15:33N 59°53' E 030°13'0 0.0
2015-Jul-01 14:33N 59°53' E 030°13'0 0.0
2015-Jul-01 13:33N 59°53' E 030°13'0 0.0
2015-Jul-01 12:33N 59°53' E 030°13'0 0.0
2015-Jul-01 11:33N 59°53' E 030°13'0 0.0
2015-Jul-01 10:33N 59°53' E 030°13'0 0.0
2015-Jul-01 09:33N 59°53' E 030°13'0 0.0
2015-Jul-01 08:33N 59°53' E 030°13'0 0.0
2015-Jul-01 07:33N 59°53' E 030°13'0 0.0
2015-Jul-01 06:33N 59°53' E 030°13'0 0.0
2015-Jul-01 05:33N 59°53' E 030°13'0 0.0
2015-Jul-01 04:34N 59°53' E 030°13'0 0.0
2015-Jul-01 03:33N 59°53' E 030°13'0 0.0
2015-Jul-01 02:33N 59°53' E 030°13'0 0.0
2015-Jul-01 01:33N 59°53' E 030°13'0 0.0
2015-Jul-01 00:33N 59°53' E 030°13'0 0.0
2015-Jun-30 23:33N 59°53' E 030°13'0 0.0
2015-Jun-30 22:33N 59°53' E 030°13'0 0.0
2015-Jun-30 21:33N 59°53' E 030°13'0 0.0
2015-Jun-30 20:33N 59°53' E 030°13'0 0.0
2015-Jun-30 19:33N 59°53' E 030°13'0 0.0
2015-Jun-30 18:33N 59°53' E 030°13'0 0.1
2015-Jun-30 17:33N 59°53' E 030°13'0 0.1
2015-Jun-30 16:33N 59°53' E 030°14'0 0.0
2015-Jun-30 15:33N 59°53' E 030°14'0 0.0
2015-Jun-30 14:33N 59°53' E 030°14'0 0.0
2015-Jun-30 13:33N 59°53' E 030°14'1 1.3
2015-Jun-30 12:33N 59°53' E 030°11'0 0.0
2015-Jun-30 11:33N 59°53' E 030°11'0 0.0
2015-Jun-30 10:34N 59°53' E 030°11'0 0.0
2015-Jun-30 09:33N 59°53' E 030°11'1 0.8
2015-Jun-30 08:33N 59°53' E 030°12'1 0.6
2015-Jun-30 07:33N 59°53' E 030°14'0 0.0
2015-Jun-30 06:34N 59°53' E 030°14'1 1.4
2015-Jun-30 05:33N 59°53' E 030°11'1010.3
2015-Jun-30 04:33N 59°57' E 029°52'1110.3
2015-Jun-30 03:30N 60°01' E 029°32'5 0.4
2015-Jun-29 15:22N 60°01' E 029°21'  

Dump ship's entire track history